Argyle, Michigan
Current Conditions -  °F | °C
As of 8:55 AM on Saturday 22 Nov 2014 (Local Time) from KBAX Reporting Station
Unknown Precip Unknown Precip  
Wind Chill: -5°   Ceiling: 1700
Heat Index:   Visibility: 3mi
Dew Point: -2°   Wind: 10mph
Humidity: 88%   Direction: 220°SW
Pressure: 30.02"   Gusts: NA
Location:  43.56°N, 82.94°W
Report Text: KBAX 221355Z AUTO 22009KT 3SM UP OVC017 00/M02 A3002 RMK AO2 T00011016
Loading
Personal Weather Stations






























Interactive Weather Map New forecast layout! Learn more

10-Day Weather Forecast

Advertisements
Track Severe Weather on mobile